Terminal Aerodrome Forecast
Issued by NWS

Home | Current Version | Previous Version | Text Only | Print | Product List | Glossary On
Versions: 1 2 3 4 5 6 7 8 9 10 11 12 13 14 15 16 17 18 19 20 21 22 23 24 25 26 27 28 29 30 31 32 33 34 35 36 37 38 39 40
000
FTUS45 KPSR 021508 AAA
TAFPHX
TAF AMD
KPHX 021508Z 0215/0312 14006KT P6SM SCT180 BKN220
     FM022100 25009KT P6SM FEW100 SCT150 BKN250
     FM030200 14012KT P6SM VCTS FEW100CB BKN150 OVC250
     FM030900 14007KT P6SM SCT120 BKN250=

USA.gov is the U.S. government's official web portal to all federal, state and local government web resources and services.